sensor_id;sensor_type;location;lat;lon;timestamp;P1;durP1;ratioP1;P2;durP2;ratioP2
4424;SDS011;2225;53.568;13.266;2023-08-08T00:02:11;29.00;;;3.90;;
4424;SDS011;2225;53.568;13.266;2023-08-08T00:04:38;15.10;;;3.57;;
4424;SDS011;2225;53.568;13.266;2023-08-08T00:07:05;20.13;;;4.13;;
4424;SDS011;2225;53.568;13.266;2023-08-08T00:09:32;11.90;;;3.43;;
4424;SDS011;2225;53.568;13.266;2023-08-08T00:11:59;17.33;;;3.67;;
4424;SDS011;2225;53.568;13.266;2023-08-08T00:14:26;19.17;;;3.50;;
4424;SDS011;2225;53.568;13.266;2023-08-08T00:16:53;19.33;;;2.97;;
4424;SDS011;2225;53.568;13.266;2023-08-08T00:19:20;14.97;;;3.30;;
4424;SDS011;2225;53.568;13.266;2023-08-08T00:21:47;13.10;;;3.60;;
4424;SDS011;2225;53.568;13.266;2023-08-08T00:24:14;26.60;;;4.27;;
4424;SDS011;2225;53.568;13.266;2023-08-08T00:26:41;15.43;;;3.53;;
4424;SDS011;2225;53.568;13.266;2023-08-08T00:29:08;29.80;;;4.93;;
4424;SDS011;2225;53.568;13.266;2023-08-08T00:31:35;15.87;;;3.33;;
4424;SDS011;2225;53.568;13.266;2023-08-08T00:34:02;16.00;;;3.83;;
4424;SDS011;2225;53.568;13.266;2023-08-08T00:36:29;13.80;;;2.80;;
4424;SDS011;2225;53.568;13.266;2023-08-08T00:38:56;24.00;;;3.30;;
4424;SDS011;2225;53.568;13.266;2023-08-08T00:41:23;25.87;;;3.70;;
4424;SDS011;2225;53.568;13.266;2023-08-08T00:43:51;13.47;;;2.87;;
4424;SDS011;2225;53.568;13.266;2023-08-08T00:46:18;14.97;;;3.30;;
4424;SDS011;2225;53.568;13.266;2023-08-08T00:48:48;16.13;;;2.93;;
4424;SDS011;2225;53.568;13.266;2023-08-08T00:51:16;15.87;;;3.90;;
4424;SDS011;2225;53.568;13.266;2023-08-08T00:53:44;18.50;;;3.63;;
4424;SDS011;2225;53.568;13.266;2023-08-08T00:56:13;27.30;;;3.37;;
4424;SDS011;2225;53.568;13.266;2023-08-08T00:58:41;19.87;;;3.53;;
4424;SDS011;2225;53.568;13.266;2023-08-08T01:01:08;13.80;;;2.40;;
4424;SDS011;2225;53.568;13.266;2023-08-08T01:03:35;12.33;;;2.77;;
4424;SDS011;2225;53.568;13.266;2023-08-08T01:06:03;12.87;;;2.60;;
4424;SDS011;2225;53.568;13.266;2023-08-08T01:08:42;17.00;;;3.57;;
4424;SDS011;2225;53.568;13.266;2023-08-08T01:11:15;16.40;;;2.60;;
4424;SDS011;2225;53.568;13.266;2023-08-08T01:13:43;15.20;;;2.90;;
4424;SDS011;2225;53.568;13.266;2023-08-08T01:16:13;16.07;;;3.20;;
4424;SDS011;2225;53.568;13.266;2023-08-08T01:18:42;12.20;;;3.13;;
4424;SDS011;2225;53.568;13.266;2023-08-08T01:21:10;11.60;;;2.80;;
4424;SDS011;2225;53.568;13.266;2023-08-08T01:23:42;22.80;;;3.30;;
4424;SDS011;2225;53.568;13.266;2023-08-08T01:26:20;16.33;;;2.90;;
4424;SDS011;2225;53.568;13.266;2023-08-08T01:28:48;18.03;;;3.00;;
4424;SDS011;2225;53.568;13.266;2023-08-08T01:31:19;13.77;;;3.10;;
4424;SDS011;2225;53.568;13.266;2023-08-08T01:33:46;12.00;;;2.80;;
4424;SDS011;2225;53.568;13.266;2023-08-08T01:36:15;11.20;;;2.70;;
4424;SDS011;2225;53.568;13.266;2023-08-08T01:38:59;14.80;;;2.90;;
4424;SDS011;2225;53.568;13.266;2023-08-08T01:41:34;14.43;;;2.97;;
4424;SDS011;2225;53.568;13.266;2023-08-08T01:44:04;13.00;;;3.00;;
4424;SDS011;2225;53.568;13.266;2023-08-08T01:46:32;22.77;;;3.13;;
4424;SDS011;2225;53.568;13.266;2023-08-08T01:49:00;12.20;;;2.90;;
4424;SDS011;2225;53.568;13.266;2023-08-08T01:51:27;11.70;;;2.73;;
4424;SDS011;2225;53.568;13.266;2023-08-08T01:53:54;17.97;;;3.57;;
4424;SDS011;2225;53.568;13.266;2023-08-08T01:56:22;16.20;;;2.80;;
4424;SDS011;2225;53.568;13.266;2023-08-08T01:58:49;13.20;;;2.57;;
4424;SDS011;2225;53.568;13.266;2023-08-08T02:01:15;13.77;;;3.43;;
4424;SDS011;2225;53.568;13.266;2023-08-08T02:03:43;13.30;;;3.20;;
4424;SDS011;2225;53.568;13.266;2023-08-08T02:06:11;15.73;;;3.90;;
4424;SDS011;2225;53.568;13.266;2023-08-08T02:08:38;13.20;;;3.47;;
4424;SDS011;2225;53.568;13.266;2023-08-08T02:11:05;9.30;;;2.10;;
4424;SDS011;2225;53.568;13.266;2023-08-08T02:13:32;12.10;;;3.00;;
4424;SDS011;2225;53.568;13.266;2023-08-08T02:15:59;8.47;;;2.33;;
4424;SDS011;2225;53.568;13.266;2023-08-08T02:18:26;11.40;;;2.80;;
4424;SDS011;2225;53.568;13.266;2023-08-08T02:20:53;11.00;;;2.60;;
4424;SDS011;2225;53.568;13.266;2023-08-08T02:23:20;10.17;;;2.80;;
4424;SDS011;2225;53.568;13.266;2023-08-08T02:25:47;8.83;;;2.57;;
4424;SDS011;2225;53.568;13.266;2023-08-08T02:28:15;10.10;;;2.50;;
4424;SDS011;2225;53.568;13.266;2023-08-08T02:30:43;9.80;;;2.60;;
4424;SDS011;2225;53.568;13.266;2023-08-08T02:33:10;12.63;;;3.30;;
4424;SDS011;2225;53.568;13.266;2023-08-08T02:35:37;16.70;;;3.27;;
4424;SDS011;2225;53.568;13.266;2023-08-08T02:38:04;12.70;;;2.80;;
4424;SDS011;2225;53.568;13.266;2023-08-08T02:40:31;10.97;;;2.63;;
4424;SDS011;2225;53.568;13.266;2023-08-08T02:43:00;11.27;;;2.97;;
4424;SDS011;2225;53.568;13.266;2023-08-08T02:45:27;11.03;;;3.10;;
4424;SDS011;2225;53.568;13.266;2023-08-08T02:47:54;12.63;;;3.10;;
4424;SDS011;2225;53.568;13.266;2023-08-08T02:50:21;13.43;;;3.20;;
4424;SDS011;2225;53.568;13.266;2023-08-08T02:52:49;11.30;;;2.70;;
4424;SDS011;2225;53.568;13.266;2023-08-08T02:55:18;17.67;;;3.20;;
4424;SDS011;2225;53.568;13.266;2023-08-08T02:57:48;12.97;;;2.50;;
4424;SDS011;2225;53.568;13.266;2023-08-08T03:00:15;12.00;;;2.80;;
4424;SDS011;2225;53.568;13.266;2023-08-08T03:02:45;19.30;;;2.37;;
4424;SDS011;2225;53.568;13.266;2023-08-08T03:05:14;13.30;;;2.70;;
4424;SDS011;2225;53.568;13.266;2023-08-08T03:07:41;13.17;;;2.70;;
4424;SDS011;2225;53.568;13.266;2023-08-08T03:10:08;9.73;;;2.93;;
4424;SDS011;2225;53.568;13.266;2023-08-08T03:12:36;10.73;;;2.80;;
4424;SDS011;2225;53.568;13.266;2023-08-08T03:15:05;11.77;;;2.63;;
4424;SDS011;2225;53.568;13.266;2023-08-08T03:17:32;10.37;;;2.80;;
4424;SDS011;2225;53.568;13.266;2023-08-08T03:20:01;11.93;;;2.90;;
4424;SDS011;2225;53.568;13.266;2023-08-08T03:22:32;12.33;;;2.40;;
4424;SDS011;2225;53.568;13.266;2023-08-08T03:24:59;12.30;;;3.23;;
4424;SDS011;2225;53.568;13.266;2023-08-08T03:27:26;12.70;;;2.50;;
4424;SDS011;2225;53.568;13.266;2023-08-08T03:29:53;13.50;;;3.10;;
4424;SDS011;2225;53.568;13.266;2023-08-08T03:32:21;17.43;;;2.97;;
4424;SDS011;2225;53.568;13.266;2023-08-08T03:34:48;9.47;;;2.37;;
4424;SDS011;2225;53.568;13.266;2023-08-08T03:37:16;13.73;;;2.57;;
4424;SDS011;2225;53.568;13.266;2023-08-08T03:39:43;11.73;;;2.90;;
4424;SDS011;2225;53.568;13.266;2023-08-08T03:42:10;15.80;;;3.20;;
4424;SDS011;2225;53.568;13.266;2023-08-08T03:44:37;10.87;;;2.83;;
4424;SDS011;2225;53.568;13.266;2023-08-08T03:47:04;14.27;;;2.90;;
4424;SDS011;2225;53.568;13.266;2023-08-08T03:49:44;16.57;;;3.30;;
4424;SDS011;2225;53.568;13.266;2023-08-08T03:52:11;14.63;;;3.50;;
4424;SDS011;2225;53.568;13.266;2023-08-08T03:54:39;13.30;;;2.80;;
4424;SDS011;2225;53.568;13.266;2023-08-08T03:57:06;8.20;;;2.43;;
4424;SDS011;2225;53.568;13.266;2023-08-08T03:59:33;13.53;;;2.73;;
4424;SDS011;2225;53.568;13.266;2023-08-08T04:02:01;9.70;;;2.70;;
4424;SDS011;2225;53.568;13.266;2023-08-08T04:04:28;11.43;;;2.50;;
4424;SDS011;2225;53.568;13.266;2023-08-08T04:06:55;10.07;;;2.60;;
4424;SDS011;2225;53.568;13.266;2023-08-08T04:09:23;14.57;;;2.80;;
4424;SDS011;2225;53.568;13.266;2023-08-08T04:11:50;9.63;;;2.70;;
4424;SDS011;2225;53.568;13.266;2023-08-08T04:14:17;10.43;;;2.70;;
4424;SDS011;2225;53.568;13.266;2023-08-08T04:16:44;15.93;;;3.23;;
4424;SDS011;2225;53.568;13.266;2023-08-08T04:19:11;12.03;;;2.30;;
4424;SDS011;2225;53.568;13.266;2023-08-08T04:21:38;19.63;;;3.03;;
4424;SDS011;2225;53.568;13.266;2023-08-08T04:24:05;10.20;;;2.70;;
4424;SDS011;2225;53.568;13.266;2023-08-08T04:26:34;13.13;;;2.80;;
4424;SDS011;2225;53.568;13.266;2023-08-08T04:29:01;9.13;;;2.20;;
4424;SDS011;2225;53.568;13.266;2023-08-08T04:31:29;13.57;;;2.47;;
4424;SDS011;2225;53.568;13.266;2023-08-08T04:33:56;15.10;;;3.17;;
4424;SDS011;2225;53.568;13.266;2023-08-08T04:36:27;10.33;;;2.50;;
4424;SDS011;2225;53.568;13.266;2023-08-08T04:38:55;7.97;;;2.53;;
4424;SDS011;2225;53.568;13.266;2023-08-08T04:41:22;19.23;;;3.17;;
4424;SDS011;2225;53.568;13.266;2023-08-08T04:43:49;9.60;;;2.40;;
4424;SDS011;2225;53.568;13.266;2023-08-08T04:46:16;12.67;;;3.30;;
4424;SDS011;2225;53.568;13.266;2023-08-08T04:48:44;10.87;;;2.83;;
4424;SDS011;2225;53.568;13.266;2023-08-08T04:51:11;11.10;;;2.50;;
4424;SDS011;2225;53.568;13.266;2023-08-08T04:53:38;12.83;;;2.50;;
4424;SDS011;2225;53.568;13.266;2023-08-08T04:56:05;12.53;;;2.57;;
4424;SDS011;2225;53.568;13.266;2023-08-08T04:58:32;15.47;;;2.63;;
4424;SDS011;2225;53.568;13.266;2023-08-08T05:00:59;8.50;;;3.00;;
4424;SDS011;2225;53.568;13.266;2023-08-08T05:03:26;12.90;;;2.00;;
4424;SDS011;2225;53.568;13.266;2023-08-08T05:05:53;26.23;;;2.53;;
4424;SDS011;2225;53.568;13.266;2023-08-08T05:08:20;10.70;;;2.80;;
4424;SDS011;2225;53.568;13.266;2023-08-08T05:10:47;9.93;;;2.43;;
4424;SDS011;2225;53.568;13.266;2023-08-08T05:13:14;10.70;;;2.57;;
4424;SDS011;2225;53.568;13.266;2023-08-08T05:15:41;11.90;;;3.60;;
4424;SDS011;2225;53.568;13.266;2023-08-08T05:18:08;16.97;;;3.20;;
4424;SDS011;2225;53.568;13.266;2023-08-08T05:20:35;16.63;;;2.50;;
4424;SDS011;2225;53.568;13.266;2023-08-08T05:23:02;12.87;;;2.70;;
4424;SDS011;2225;53.568;13.266;2023-08-08T05:25:29;15.83;;;3.10;;
4424;SDS011;2225;53.568;13.266;2023-08-08T05:27:56;15.43;;;3.10;;
4424;SDS011;2225;53.568;13.266;2023-08-08T05:30:23;13.53;;;2.50;;
4424;SDS011;2225;53.568;13.266;2023-08-08T05:32:50;11.17;;;3.00;;
4424;SDS011;2225;53.568;13.266;2023-08-08T05:35:17;11.77;;;2.30;;
4424;SDS011;2225;53.568;13.266;2023-08-08T05:37:44;10.93;;;2.67;;
4424;SDS011;2225;53.568;13.266;2023-08-08T05:40:11;13.20;;;2.50;;
4424;SDS011;2225;53.568;13.266;2023-08-08T05:42:38;9.20;;;2.20;;
4424;SDS011;2225;53.568;13.266;2023-08-08T05:45:05;15.93;;;3.17;;
4424;SDS011;2225;53.568;13.266;2023-08-08T05:47:33;11.77;;;2.53;;
4424;SDS011;2225;53.568;13.266;2023-08-08T05:50:00;14.23;;;2.67;;
4424;SDS011;2225;53.568;13.266;2023-08-08T05:52:28;12.03;;;2.37;;
4424;SDS011;2225;53.568;13.266;2023-08-08T05:54:56;10.30;;;2.37;;
4424;SDS011;2225;53.568;13.266;2023-08-08T05:57:25;10.03;;;2.37;;
4424;SDS011;2225;53.568;13.266;2023-08-08T05:59:53;15.03;;;3.00;;
4424;SDS011;2225;53.568;13.266;2023-08-08T06:02:20;13.60;;;2.60;;
4424;SDS011;2225;53.568;13.266;2023-08-08T06:04:47;10.50;;;2.30;;
4424;SDS011;2225;53.568;13.266;2023-08-08T06:07:14;11.40;;;2.60;;
4424;SDS011;2225;53.568;13.266;2023-08-08T06:09:41;14.77;;;2.90;;
4424;SDS011;2225;53.568;13.266;2023-08-08T06:12:08;12.57;;;2.30;;
4424;SDS011;2225;53.568;13.266;2023-08-08T06:14:35;11.77;;;2.63;;
4424;SDS011;2225;53.568;13.266;2023-08-08T06:17:02;11.60;;;2.80;;
4424;SDS011;2225;53.568;13.266;2023-08-08T06:19:29;10.97;;;3.00;;
4424;SDS011;2225;53.568;13.266;2023-08-08T06:21:56;16.00;;;2.30;;
4424;SDS011;2225;53.568;13.266;2023-08-08T06:24:23;10.90;;;2.40;;
4424;SDS011;2225;53.568;13.266;2023-08-08T06:26:50;11.23;;;2.37;;
4424;SDS011;2225;53.568;13.266;2023-08-08T06:29:17;11.03;;;2.83;;
4424;SDS011;2225;53.568;13.266;2023-08-08T06:31:44;12.93;;;2.60;;
4424;SDS011;2225;53.568;13.266;2023-08-08T06:34:11;9.67;;;2.40;;
4424;SDS011;2225;53.568;13.266;2023-08-08T06:36:38;14.43;;;2.87;;
4424;SDS011;2225;53.568;13.266;2023-08-08T06:39:04;8.13;;;2.50;;
4424;SDS011;2225;53.568;13.266;2023-08-08T06:41:32;10.57;;;2.00;;
4424;SDS011;2225;53.568;13.266;2023-08-08T06:43:59;16.63;;;3.13;;
4424;SDS011;2225;53.568;13.266;2023-08-08T06:46:26;9.70;;;2.90;;
4424;SDS011;2225;53.568;13.266;2023-08-08T06:48:53;9.07;;;2.50;;
4424;SDS011;2225;53.568;13.266;2023-08-08T06:51:23;10.47;;;2.30;;
4424;SDS011;2225;53.568;13.266;2023-08-08T06:53:51;10.83;;;2.07;;
4424;SDS011;2225;53.568;13.266;2023-08-08T06:56:19;8.43;;;2.67;;
4424;SDS011;2225;53.568;13.266;2023-08-08T06:58:46;7.67;;;2.00;;
4424;SDS011;2225;53.568;13.266;2023-08-08T07:01:13;12.33;;;2.00;;
4424;SDS011;2225;53.568;13.266;2023-08-08T07:03:40;9.70;;;2.53;;
4424;SDS011;2225;53.568;13.266;2023-08-08T07:06:07;15.40;;;2.07;;
4424;SDS011;2225;53.568;13.266;2023-08-08T07:08:34;13.43;;;2.17;;
4424;SDS011;2225;53.568;13.266;2023-08-08T07:11:01;11.83;;;2.27;;
4424;SDS011;2225;53.568;13.266;2023-08-08T07:13:28;14.17;;;2.70;;
4424;SDS011;2225;53.568;13.266;2023-08-08T07:15:55;10.83;;;2.17;;
4424;SDS011;2225;53.568;13.266;2023-08-08T07:18:22;17.37;;;2.63;;
4424;SDS011;2225;53.568;13.266;2023-08-08T07:20:49;10.60;;;2.10;;
4424;SDS011;2225;53.568;13.266;2023-08-08T07:23:16;8.50;;;2.40;;
4424;SDS011;2225;53.568;13.266;2023-08-08T07:25:43;10.07;;;2.40;;
4424;SDS011;2225;53.568;13.266;2023-08-08T07:28:15;7.37;;;2.00;;
4424;SDS011;2225;53.568;13.266;2023-08-08T07:30:42;14.60;;;2.10;;
4424;SDS011;2225;53.568;13.266;2023-08-08T07:33:08;11.80;;;2.10;;
4424;SDS011;2225;53.568;13.266;2023-08-08T07:35:35;10.00;;;2.60;;
4424;SDS011;2225;53.568;13.266;2023-08-08T07:38:02;11.40;;;2.67;;
4424;SDS011;2225;53.568;13.266;2023-08-08T07:40:30;8.60;;;2.37;;
4424;SDS011;2225;53.568;13.266;2023-08-08T07:42:57;11.30;;;2.37;;
4424;SDS011;2225;53.568;13.266;2023-08-08T07:45:24;7.00;;;1.70;;
4424;SDS011;2225;53.568;13.266;2023-08-08T07:47:51;8.80;;;2.03;;
4424;SDS011;2225;53.568;13.266;2023-08-08T07:50:18;7.50;;;2.07;;
4424;SDS011;2225;53.568;13.266;2023-08-08T07:52:45;12.53;;;2.00;;
4424;SDS011;2225;53.568;13.266;2023-08-08T07:55:13;10.40;;;3.30;;
4424;SDS011;2225;53.568;13.266;2023-08-08T07:57:40;9.83;;;1.80;;
4424;SDS011;2225;53.568;13.266;2023-08-08T08:00:07;8.77;;;2.40;;
4424;SDS011;2225;53.568;13.266;2023-08-08T08:02:39;11.70;;;1.90;;
4424;SDS011;2225;53.568;13.266;2023-08-08T08:05:08;9.60;;;1.97;;
4424;SDS011;2225;53.568;13.266;2023-08-08T08:07:36;10.53;;;2.13;;
4424;SDS011;2225;53.568;13.266;2023-08-08T08:10:04;10.00;;;1.83;;
4424;SDS011;2225;53.568;13.266;2023-08-08T08:12:35;10.03;;;2.30;;
4424;SDS011;2225;53.568;13.266;2023-08-08T08:15:02;9.17;;;2.20;;
4424;SDS011;2225;53.568;13.266;2023-08-08T08:17:30;11.83;;;2.20;;
4424;SDS011;2225;53.568;13.266;2023-08-08T08:19:58;7.83;;;1.90;;
4424;SDS011;2225;53.568;13.266;2023-08-08T08:22:25;11.80;;;2.57;;
4424;SDS011;2225;53.568;13.266;2023-08-08T08:24:52;8.07;;;2.03;;
4424;SDS011;2225;53.568;13.266;2023-08-08T08:27:19;6.87;;;1.87;;
4424;SDS011;2225;53.568;13.266;2023-08-08T08:29:46;9.33;;;2.17;;
4424;SDS011;2225;53.568;13.266;2023-08-08T08:32:13;6.50;;;1.67;;
4424;SDS011;2225;53.568;13.266;2023-08-08T08:34:40;8.30;;;1.93;;
4424;SDS011;2225;53.568;13.266;2023-08-08T08:37:07;8.30;;;2.13;;
4424;SDS011;2225;53.568;13.266;2023-08-08T08:39:34;10.73;;;1.80;;
4424;SDS011;2225;53.568;13.266;2023-08-08T08:42:01;8.73;;;2.00;;
4424;SDS011;2225;53.568;13.266;2023-08-08T08:44:31;11.97;;;2.47;;
4424;SDS011;2225;53.568;13.266;2023-08-08T08:47:02;7.67;;;2.00;;
4424;SDS011;2225;53.568;13.266;2023-08-08T08:49:30;8.30;;;2.00;;
4424;SDS011;2225;53.568;13.266;2023-08-08T08:51:58;8.53;;;2.07;;
4424;SDS011;2225;53.568;13.266;2023-08-08T08:54:28;10.20;;;1.60;;
4424;SDS011;2225;53.568;13.266;2023-08-08T08:56:56;9.37;;;1.83;;
4424;SDS011;2225;53.568;13.266;2023-08-08T08:59:24;9.90;;;2.63;;
4424;SDS011;2225;53.568;13.266;2023-08-08T09:01:51;10.43;;;1.97;;
4424;SDS011;2225;53.568;13.266;2023-08-08T09:04:19;8.60;;;1.90;;
4424;SDS011;2225;53.568;13.266;2023-08-08T09:06:48;9.17;;;2.10;;
4424;SDS011;2225;53.568;13.266;2023-08-08T09:09:17;9.00;;;2.40;;
4424;SDS011;2225;53.568;13.266;2023-08-08T09:11:48;9.53;;;2.07;;
4424;SDS011;2225;53.568;13.266;2023-08-08T09:14:18;6.23;;;1.80;;
4424;SDS011;2225;53.568;13.266;2023-08-08T09:16:46;9.50;;;2.30;;
4424;SDS011;2225;53.568;13.266;2023-08-08T09:19:15;9.33;;;1.93;;
4424;SDS011;2225;53.568;13.266;2023-08-08T09:21:44;10.43;;;2.30;;
4424;SDS011;2225;53.568;13.266;2023-08-08T09:24:11;7.80;;;1.80;;
4424;SDS011;2225;53.568;13.266;2023-08-08T09:26:39;10.17;;;1.83;;
4424;SDS011;2225;53.568;13.266;2023-08-08T09:29:07;7.80;;;2.10;;
4424;SDS011;2225;53.568;13.266;2023-08-08T09:31:35;13.10;;;2.50;;
4424;SDS011;2225;53.568;13.266;2023-08-08T09:34:03;7.50;;;2.27;;
4424;SDS011;2225;53.568;13.266;2023-08-08T09:36:31;8.17;;;1.90;;
4424;SDS011;2225;53.568;13.266;2023-08-08T09:38:59;11.37;;;1.80;;
4424;SDS011;2225;53.568;13.266;2023-08-08T09:41:26;6.90;;;1.83;;
4424;SDS011;2225;53.568;13.266;2023-08-08T09:43:54;8.40;;;1.90;;
4424;SDS011;2225;53.568;13.266;2023-08-08T09:46:21;7.13;;;1.40;;
4424;SDS011;2225;53.568;13.266;2023-08-08T09:48:49;9.23;;;2.40;;
4424;SDS011;2225;53.568;13.266;2023-08-08T09:51:16;15.93;;;2.60;;
4424;SDS011;2225;53.568;13.266;2023-08-08T09:53:44;9.17;;;2.37;;
4424;SDS011;2225;53.568;13.266;2023-08-08T09:56:13;9.43;;;2.43;;
4424;SDS011;2225;53.568;13.266;2023-08-08T09:58:41;10.00;;;2.40;;
4424;SDS011;2225;53.568;13.266;2023-08-08T10:01:10;11.20;;;2.90;;
4424;SDS011;2225;53.568;13.266;2023-08-08T10:03:39;9.33;;;1.87;;
4424;SDS011;2225;53.568;13.266;2023-08-08T10:06:10;8.97;;;2.20;;
4424;SDS011;2225;53.568;13.266;2023-08-08T10:08:37;19.37;;;3.10;;
4424;SDS011;2225;53.568;13.266;2023-08-08T10:11:05;9.63;;;1.70;;
4424;SDS011;2225;53.568;13.266;2023-08-08T10:13:35;8.27;;;1.93;;
4424;SDS011;2225;53.568;13.266;2023-08-08T10:16:08;9.50;;;2.13;;
4424;SDS011;2225;53.568;13.266;2023-08-08T10:18:35;9.07;;;1.70;;
4424;SDS011;2225;53.568;13.266;2023-08-08T10:21:03;9.50;;;2.27;;
4424;SDS011;2225;53.568;13.266;2023-08-08T10:23:37;11.20;;;1.97;;
4424;SDS011;2225;53.568;13.266;2023-08-08T10:26:06;12.00;;;1.80;;
4424;SDS011;2225;53.568;13.266;2023-08-08T10:28:57;9.23;;;1.53;;
4424;SDS011;2225;53.568;13.266;2023-08-08T10:31:26;8.60;;;1.83;;
4424;SDS011;2225;53.568;13.266;2023-08-08T10:34:03;13.10;;;2.93;;
4424;SDS011;2225;53.568;13.266;2023-08-08T10:36:51;6.43;;;1.60;;
4424;SDS011;2225;53.568;13.266;2023-08-08T10:39:21;7.70;;;1.40;;
4424;SDS011;2225;53.568;13.266;2023-08-08T10:41:49;6.90;;;1.33;;
4424;SDS011;2225;53.568;13.266;2023-08-08T10:44:23;10.57;;;2.00;;
4424;SDS011;2225;53.568;13.266;2023-08-08T10:46:51;8.93;;;1.37;;
4424;SDS011;2225;53.568;13.266;2023-08-08T10:49:19;5.70;;;1.30;;
4424;SDS011;2225;53.568;13.266;2023-08-08T10:51:47;11.60;;;1.83;;
4424;SDS011;2225;53.568;13.266;2023-08-08T10:54:24;9.17;;;1.77;;
4424;SDS011;2225;53.568;13.266;2023-08-08T10:56:57;6.27;;;1.50;;
4424;SDS011;2225;53.568;13.266;2023-08-08T10:59:27;10.03;;;1.60;;
4424;SDS011;2225;53.568;13.266;2023-08-08T11:02:02;8.00;;;1.77;;
4424;SDS011;2225;53.568;13.266;2023-08-08T11:04:30;6.03;;;1.33;;
4424;SDS011;2225;53.568;13.266;2023-08-08T11:06:58;10.33;;;1.60;;
4424;SDS011;2225;53.568;13.266;2023-08-08T11:09:26;11.17;;;1.87;;
4424;SDS011;2225;53.568;13.266;2023-08-08T11:11:54;7.37;;;1.60;;
4424;SDS011;2225;53.568;13.266;2023-08-08T11:14:21;11.33;;;1.97;;
4424;SDS011;2225;53.568;13.266;2023-08-08T11:16:50;7.23;;;1.23;;
4424;SDS011;2225;53.568;13.266;2023-08-08T11:19:18;10.13;;;1.60;;
4424;SDS011;2225;53.568;13.266;2023-08-08T11:21:46;6.30;;;1.67;;
4424;SDS011;2225;53.568;13.266;2023-08-08T11:24:14;8.77;;;2.00;;
4424;SDS011;2225;53.568;13.266;2023-08-08T11:26:42;6.30;;;1.60;;
4424;SDS011;2225;53.568;13.266;2023-08-08T11:29:11;10.00;;;2.00;;
4424;SDS011;2225;53.568;13.266;2023-08-08T11:31:38;15.20;;;2.00;;
4424;SDS011;2225;53.568;13.266;2023-08-08T11:34:05;9.63;;;1.97;;
4424;SDS011;2225;53.568;13.266;2023-08-08T11:36:33;8.97;;;2.10;;
4424;SDS011;2225;53.568;13.266;2023-08-08T11:39:02;10.37;;;1.87;;
4424;SDS011;2225;53.568;13.266;2023-08-08T11:41:37;10.77;;;2.40;;
4424;SDS011;2225;53.568;13.266;2023-08-08T11:44:05;12.33;;;2.30;;
4424;SDS011;2225;53.568;13.266;2023-08-08T11:46:35;8.13;;;2.37;;
4424;SDS011;2225;53.568;13.266;2023-08-08T11:49:10;12.67;;;2.90;;
4424;SDS011;2225;53.568;13.266;2023-08-08T11:51:39;10.70;;;2.10;;
4424;SDS011;2225;53.568;13.266;2023-08-08T11:54:10;8.27;;;1.93;;
4424;SDS011;2225;53.568;13.266;2023-08-08T11:56:37;10.00;;;1.70;;
4424;SDS011;2225;53.568;13.266;2023-08-08T11:59:04;7.97;;;2.00;;
4424;SDS011;2225;53.568;13.266;2023-08-08T12:01:32;7.53;;;1.37;;
4424;SDS011;2225;53.568;13.266;2023-08-08T12:04:04;6.53;;;1.50;;
4424;SDS011;2225;53.568;13.266;2023-08-08T12:06:33;6.90;;;1.40;;
4424;SDS011;2225;53.568;13.266;2023-08-08T12:09:05;6.47;;;1.47;;
4424;SDS011;2225;53.568;13.266;2023-08-08T12:11:35;7.50;;;1.80;;
4424;SDS011;2225;53.568;13.266;2023-08-08T12:14:03;6.80;;;1.47;;
4424;SDS011;2225;53.568;13.266;2023-08-08T12:16:34;12.20;;;2.20;;
4424;SDS011;2225;53.568;13.266;2023-08-08T12:19:07;5.90;;;1.60;;
4424;SDS011;2225;53.568;13.266;2023-08-08T12:21:38;10.57;;;1.60;;
4424;SDS011;2225;53.568;13.266;2023-08-08T12:24:05;8.93;;;1.57;;
4424;SDS011;2225;53.568;13.266;2023-08-08T12:26:33;9.50;;;1.63;;
4424;SDS011;2225;53.568;13.266;2023-08-08T12:29:00;6.70;;;1.50;;
4424;SDS011;2225;53.568;13.266;2023-08-08T12:31:27;8.27;;;1.70;;
4424;SDS011;2225;53.568;13.266;2023-08-08T12:33:54;9.97;;;1.80;;
4424;SDS011;2225;53.568;13.266;2023-08-08T12:36:21;7.60;;;1.70;;
4424;SDS011;2225;53.568;13.266;2023-08-08T12:38:48;5.90;;;1.20;;
4424;SDS011;2225;53.568;13.266;2023-08-08T12:41:15;6.93;;;1.60;;
4424;SDS011;2225;53.568;13.266;2023-08-08T12:43:42;5.60;;;1.20;;
4424;SDS011;2225;53.568;13.266;2023-08-08T12:46:09;6.93;;;1.23;;
4424;SDS011;2225;53.568;13.266;2023-08-08T12:48:36;6.83;;;1.77;;
4424;SDS011;2225;53.568;13.266;2023-08-08T12:51:03;11.73;;;2.00;;
4424;SDS011;2225;53.568;13.266;2023-08-08T12:53:31;9.73;;;1.40;;
4424;SDS011;2225;53.568;13.266;2023-08-08T12:55:58;7.77;;;1.40;;
4424;SDS011;2225;53.568;13.266;2023-08-08T12:58:25;12.67;;;1.83;;
4424;SDS011;2225;53.568;13.266;2023-08-08T13:00:52;9.13;;;1.83;;
4424;SDS011;2225;53.568;13.266;2023-08-08T13:03:19;7.00;;;1.50;;
4424;SDS011;2225;53.568;13.266;2023-08-08T13:05:47;7.30;;;1.50;;
4424;SDS011;2225;53.568;13.266;2023-08-08T13:08:14;9.47;;;1.83;;
4424;SDS011;2225;53.568;13.266;2023-08-08T13:10:41;5.93;;;1.13;;
4424;SDS011;2225;53.568;13.266;2023-08-08T13:13:08;8.10;;;1.53;;
4424;SDS011;2225;53.568;13.266;2023-08-08T13:15:35;5.97;;;1.33;;
4424;SDS011;2225;53.568;13.266;2023-08-08T13:18:02;5.70;;;1.10;;
4424;SDS011;2225;53.568;13.266;2023-08-08T13:20:29;7.43;;;1.60;;
4424;SDS011;2225;53.568;13.266;2023-08-08T13:22:56;6.60;;;1.47;;
4424;SDS011;2225;53.568;13.266;2023-08-08T13:25:23;5.53;;;1.00;;
4424;SDS011;2225;53.568;13.266;2023-08-08T13:27:50;15.60;;;1.43;;
4424;SDS011;2225;53.568;13.266;2023-08-08T13:30:17;5.87;;;1.27;;
4424;SDS011;2225;53.568;13.266;2023-08-08T13:32:44;6.60;;;1.37;;
4424;SDS011;2225;53.568;13.266;2023-08-08T13:35:11;7.77;;;1.33;;
4424;SDS011;2225;53.568;13.266;2023-08-08T13:37:38;5.43;;;0.90;;
4424;SDS011;2225;53.568;13.266;2023-08-08T13:40:05;8.70;;;1.10;;
4424;SDS011;2225;53.568;13.266;2023-08-08T13:42:33;7.70;;;1.13;;
4424;SDS011;2225;53.568;13.266;2023-08-08T13:45:00;6.67;;;1.73;;
4424;SDS011;2225;53.568;13.266;2023-08-08T13:47:27;6.80;;;1.20;;
4424;SDS011;2225;53.568;13.266;2023-08-08T13:49:54;6.07;;;1.40;;
4424;SDS011;2225;53.568;13.266;2023-08-08T13:52:21;9.03;;;1.00;;
4424;SDS011;2225;53.568;13.266;2023-08-08T13:54:48;5.93;;;1.10;;
4424;SDS011;2225;53.568;13.266;2023-08-08T13:57:15;6.30;;;1.10;;
4424;SDS011;2225;53.568;13.266;2023-08-08T13:59:42;6.00;;;1.10;;
4424;SDS011;2225;53.568;13.266;2023-08-08T14:02:09;8.40;;;1.40;;
4424;SDS011;2225;53.568;13.266;2023-08-08T14:04:36;7.20;;;1.30;;
4424;SDS011;2225;53.568;13.266;2023-08-08T14:07:03;5.97;;;1.20;;
4424;SDS011;2225;53.568;13.266;2023-08-08T14:09:30;5.87;;;1.30;;
4424;SDS011;2225;53.568;13.266;2023-08-08T14:11:57;11.93;;;1.77;;
4424;SDS011;2225;53.568;13.266;2023-08-08T14:14:26;9.60;;;1.53;;
4424;SDS011;2225;53.568;13.266;2023-08-08T14:16:52;7.27;;;1.30;;
4424;SDS011;2225;53.568;13.266;2023-08-08T14:19:21;8.10;;;1.20;;
4424;SDS011;2225;53.568;13.266;2023-08-08T14:21:48;6.50;;;1.20;;
4424;SDS011;2225;53.568;13.266;2023-08-08T14:24:15;6.60;;;1.50;;
4424;SDS011;2225;53.568;13.266;2023-08-08T14:26:43;8.30;;;1.50;;
4424;SDS011;2225;53.568;13.266;2023-08-08T14:29:11;17.47;;;1.70;;
4424;SDS011;2225;53.568;13.266;2023-08-08T14:31:38;8.83;;;1.43;;
4424;SDS011;2225;53.568;13.266;2023-08-08T14:34:32;7.53;;;1.30;;
4424;SDS011;2225;53.568;13.266;2023-08-08T14:37:00;8.60;;;1.27;;
4424;SDS011;2225;53.568;13.266;2023-08-08T14:39:28;7.00;;;1.30;;
4424;SDS011;2225;53.568;13.266;2023-08-08T14:41:56;5.90;;;1.10;;
4424;SDS011;2225;53.568;13.266;2023-08-08T14:44:34;5.50;;;1.23;;
4424;SDS011;2225;53.568;13.266;2023-08-08T14:47:02;6.93;;;1.70;;
4424;SDS011;2225;53.568;13.266;2023-08-08T14:49:29;7.17;;;1.20;;
4424;SDS011;2225;53.568;13.266;2023-08-08T14:51:56;8.63;;;1.50;;
4424;SDS011;2225;53.568;13.266;2023-08-08T14:54:24;8.27;;;1.40;;
4424;SDS011;2225;53.568;13.266;2023-08-08T14:56:51;5.47;;;1.10;;
4424;SDS011;2225;53.568;13.266;2023-08-08T14:59:18;5.53;;;1.30;;